Time;durP1;ratioP1;P1;durP2;ratioP2;P2;SDS_P1;SDS_P2;PMS_P1;PMS_P2;Temp;Humidity;BMP_temperature;BMP_pressure;BME280_temperature;BME280_humidity;BME280_pressure;Samples;Min_cycle;Max_cycle;Signal;HPM_P1;HPM_P2
2021/01/06 00:00:43;;;;;;;24.17;22.07;;;4.10;99.90;;;;;;5030541;28;20547;-78
2021/01/06 00:03:11;;;;;;;23.83;21.63;;;4.10;99.90;;;;;;5030478;28;20952;-78
2021/01/06 00:05:37;;;;;;;23.43;21.07;;;4.30;99.90;;;;;;5030551;28;20458;-78
2021/01/06 00:08:04;;;;;;;24.13;21.83;;;4.20;99.90;;;;;;5030552;28;20483;-78
2021/01/06 00:10:30;;;;;;;26.13;23.53;;;4.10;99.90;;;;;;5030697;28;20445;-77
2021/01/06 00:12:57;;;;;;;23.40;20.97;;;4.10;99.90;;;;;;5030129;28;20481;-78
2021/01/06 00:15:25;;;;;;;24.10;21.70;;;4.20;99.90;;;;;;5030721;28;20829;-78
2021/01/06 00:17:52;;;;;;;25.00;22.60;;;4.20;99.90;;;;;;5030566;28;20445;-78
2021/01/06 00:20:21;;;;;;;26.57;24.20;;;4.20;99.90;;;;;;5030521;28;20453;-77
2021/01/06 00:22:47;;;;;;;22.63;20.53;;;4.10;99.90;;;;;;5030185;28;20464;-77
2021/01/06 00:25:23;;;;;;;24.97;22.47;;;4.10;99.90;;;;;;5030294;28;20556;-78
2021/01/06 00:27:49;;;;;;;25.00;22.60;;;4.10;99.90;;;;;;5030793;28;20472;-78
2021/01/06 00:30:23;;;;;;;25.00;22.37;;;3.90;99.90;;;;;;5030480;28;20449;-78
2021/01/06 00:32:50;;;;;;;25.57;23.00;;;3.90;99.90;;;;;;5030498;28;20452;-77
2021/01/06 00:35:17;;;;;;;27.00;24.03;;;3.90;99.90;;;;;;5034569;28;20445;-77
2021/01/06 00:37:44;;;;;;;25.57;23.00;;;3.80;99.90;;;;;;5033990;28;20461;-77
2021/01/06 00:40:11;;;;;;;23.10;20.70;;;3.70;99.90;;;;;;5034520;28;20452;-77
2021/01/06 00:42:38;;;;;;;24.43;22.33;;;3.60;99.90;;;;;;5034233;28;20965;-77
2021/01/06 00:45:06;;;;;;;25.97;23.27;;;3.60;99.90;;;;;;5034233;28;20491;-76
2021/01/06 00:47:32;;;;;;;24.97;22.40;;;3.50;99.90;;;;;;5034165;28;20455;-76
2021/01/06 00:49:58;;;;;;;25.53;23.00;;;3.50;99.90;;;;;;5034170;28;20456;-76
2021/01/06 00:52:24;;;;;;;24.33;22.03;;;3.60;99.90;;;;;;5033995;28;20518;-78
2021/01/06 00:54:51;;;;;;;26.20;23.63;;;3.50;99.90;;;;;;5034149;28;20948;-76
2021/01/06 00:57:18;;;;;;;24.77;21.93;;;3.60;99.90;;;;;;5033936;28;20882;-76
2021/01/06 00:59:45;;;;;;;29.00;23.50;;;3.60;99.90;;;;;;5033753;28;20490;-76
2021/01/06 01:02:12;;;;;;;26.57;23.73;;;3.70;99.90;;;;;;5033867;28;20477;-76
2021/01/06 01:04:38;;;;;;;26.10;23.33;;;3.60;99.90;;;;;;5033575;28;20511;-75
2021/01/06 01:07:04;;;;;;;26.00;23.37;;;3.60;99.90;;;;;;5033734;28;20527;-75
2021/01/06 01:09:30;;;;;;;27.07;24.30;;;3.50;99.90;;;;;;5033839;28;20447;-75
2021/01/06 01:11:57;;;;;;;28.83;26.10;;;3.40;99.90;;;;;;5033701;28;20449;-76
2021/01/06 01:14:23;;;;;;;25.97;23.10;;;3.50;99.90;;;;;;5033585;28;20456;-75
2021/01/06 01:16:51;;;;;;;24.20;21.90;;;3.40;99.90;;;;;;5033703;28;20449;-76
2021/01/06 01:19:17;;;;;;;26.10;23.60;;;3.30;99.90;;;;;;5033716;28;20468;-75
2021/01/06 01:21:44;;;;;;;26.50;23.83;;;3.30;99.90;;;;;;5033207;28;20542;-75
2021/01/06 01:24:10;;;;;;;25.83;23.20;;;3.30;99.90;;;;;;5033557;28;20488;-76
2021/01/06 01:26:36;;;;;;;26.77;24.17;;;3.30;99.90;;;;;;5033286;28;20456;-75
2021/01/06 01:29:03;;;;;;;26.37;23.70;;;3.30;99.90;;;;;;5033220;28;20603;-75
2021/01/06 01:31:34;;;;;;;25.73;23.37;;;3.30;99.90;;;;;;5033620;28;20514;-75
2021/01/06 01:34:00;;;;;;;24.40;22.10;;;3.40;99.90;;;;;;5033390;28;20452;-76
2021/01/06 01:36:27;;;;;;;26.20;23.73;;;3.40;99.90;;;;;;5033247;28;20454;-76
2021/01/06 01:38:53;;;;;;;25.23;23.00;;;3.40;99.90;;;;;;5033298;28;20531;-77
2021/01/06 01:41:21;;;;;;;27.87;25.30;;;3.40;99.90;;;;;;5033111;28;20460;-76
2021/01/06 01:43:48;;;;;;;26.33;23.77;;;3.40;99.90;;;;;;5033072;28;20488;-77
2021/01/06 01:46:43;;;;;;;25.50;23.17;;;3.40;99.90;;;;;;5032183;28;20955;-76
2021/01/06 01:49:17;;;;;;;27.17;24.63;;;3.40;99.90;;;;;;5033044;28;20441;-76
2021/01/06 01:51:50;;;;;;;25.60;23.20;;;3.50;99.90;;;;;;5032823;28;20444;-76
2021/01/06 01:54:19;;;;;;;26.40;23.73;;;3.50;99.90;;;;;;5033230;28;20453;-77
2021/01/06 01:56:51;;;;;;;25.77;23.40;;;3.40;99.90;;;;;;5032721;28;20441;-77
2021/01/06 01:59:23;;;;;;;25.73;23.00;;;3.40;99.90;;;;;;5033142;28;20463;-77
2021/01/06 02:01:53;;;;;;;25.60;23.30;;;3.40;99.90;;;;;;5033300;28;20534;-83
2021/01/06 02:04:27;;;;;;;26.63;24.13;;;3.40;99.90;;;;;;5032670;28;20470;-83
2021/01/06 02:07:00;;;;;;;27.17;24.97;;;3.40;99.90;;;;;;5033098;28;20911;-82
2021/01/06 02:09:31;;;;;;;26.43;24.10;;;3.40;99.90;;;;;;5032683;28;20452;-77
2021/01/06 02:12:07;;;;;;;29.97;27.30;;;3.40;99.90;;;;;;5032493;28;20453;-77
2021/01/06 02:14:41;;;;;;;27.40;25.20;;;3.40;99.90;;;;;;5032918;28;20794;-76
2021/01/06 02:17:12;;;;;;;28.30;25.70;;;3.40;99.90;;;;;;5032547;28;20444;-77
2021/01/06 02:19:41;;;;;;;28.30;25.60;;;3.40;99.90;;;;;;5032647;28;20474;-76
2021/01/06 02:22:11;;;;;;;27.30;25.10;;;3.30;99.90;;;;;;5032194;28;20454;-77
2021/01/06 02:24:37;;;;;;;28.50;26.10;;;3.40;99.90;;;;;;5031880;28;20496;-76
2021/01/06 02:27:05;;;;;;;28.60;26.07;;;3.30;99.90;;;;;;5032654;28;20498;-77
2021/01/06 02:29:32;;;;;;;28.00;25.60;;;3.30;99.90;;;;;;5032364;28;20530;-77
2021/01/06 02:31:59;;;;;;;28.20;25.90;;;3.30;99.90;;;;;;5032292;28;20473;-77
2021/01/06 02:34:25;;;;;;;30.90;28.20;;;3.30;99.90;;;;;;5031842;28;20453;-79
2021/01/06 02:36:52;;;;;;;31.00;28.37;;;3.20;99.90;;;;;;5032136;28;20478;-78
2021/01/06 02:39:19;;;;;;;29.07;26.70;;;3.20;99.90;;;;;;5032223;28;20453;-77
2021/01/06 02:41:48;;;;;;;29.37;27.13;;;3.30;99.90;;;;;;5032121;28;21002;-77
2021/01/06 02:44:15;;;;;;;30.23;27.77;;;3.30;99.90;;;;;;5032054;28;20508;-78
2021/01/06 02:46:42;;;;;;;30.20;27.90;;;3.30;99.90;;;;;;5031849;28;20808;-78
2021/01/06 02:49:09;;;;;;;30.13;27.53;;;3.30;99.90;;;;;;5032053;28;20457;-79
2021/01/06 02:51:40;;;;;;;29.13;26.63;;;3.30;99.90;;;;;;5031763;28;20475;-77
2021/01/06 02:54:09;;;;;;;31.57;29.07;;;3.30;99.90;;;;;;5031728;28;20850;-76
2021/01/06 02:56:40;;;;;;;30.53;27.67;;;3.20;99.90;;;;;;5031532;28;20455;-74
2021/01/06 02:59:08;;;;;;;29.93;27.60;;;3.20;99.90;;;;;;5031585;28;20457;-76
2021/01/06 03:01:38;;;;;;;31.23;28.83;;;3.20;99.90;;;;;;5031597;28;20549;-76
2021/01/06 03:04:08;;;;;;;31.37;28.43;;;3.20;99.90;;;;;;5031434;28;21010;-76
2021/01/06 03:06:39;;;;;;;29.50;27.40;;;3.20;99.90;;;;;;5031307;28;20540;-75
2021/01/06 03:09:07;;;;;;;31.10;28.80;;;3.20;99.90;;;;;;5031599;28;20461;-72
2021/01/06 03:11:33;;;;;;;33.60;31.07;;;3.10;99.90;;;;;;5031961;28;20453;-72
2021/01/06 03:14:00;;;;;;;32.77;30.07;;;3.10;99.90;;;;;;5031420;28;20452;-73
2021/01/06 03:16:27;;;;;;;29.97;27.87;;;3.10;99.90;;;;;;5031466;28;20453;-72
2021/01/06 03:18:55;;;;;;;29.87;27.57;;;3.10;99.90;;;;;;5030918;28;20453;-73
2021/01/06 03:21:21;;;;;;;32.53;29.80;;;3.10;99.90;;;;;;5031167;28;20508;-73
2021/01/06 03:23:51;;;;;;;31.33;29.03;;;3.20;99.90;;;;;;5031309;28;20830;-73
2021/01/06 03:26:20;;;;;;;31.70;29.30;;;3.10;99.90;;;;;;5031247;28;20461;-72
2021/01/06 03:28:48;;;;;;;30.80;28.50;;;3.00;99.90;;;;;;5031065;28;20472;-74
2021/01/06 09:28:12;;;;;;;27.03;25.43;;;2.90;99.90;;;;;;5223418;23;20501;-73
2021/01/06 09:30:39;;;;;;;29.53;27.60;;;2.90;99.90;;;;;;4933567;29;20544;-73
2021/01/06 09:33:15;;;;;;;29.83;27.83;;;3.00;99.90;;;;;;4936060;29;20548;-74
2021/01/06 09:35:41;;;;;;;31.30;29.13;;;3.10;99.90;;;;;;4935792;29;20520;-74
2021/01/06 09:38:15;;;;;;;27.70;25.80;;;3.20;99.90;;;;;;4935432;29;20483;-73
2021/01/06 09:40:46;;;;;;;28.43;26.43;;;3.30;99.90;;;;;;4933969;29;20816;-73
2021/01/06 09:43:23;;;;;;;27.83;26.00;;;3.30;99.90;;;;;;4936044;29;20461;-73
2021/01/06 09:45:50;;;;;;;29.37;27.47;;;3.40;99.90;;;;;;4935846;29;20576;-74
2021/01/06 09:48:19;;;;;;;25.90;24.17;;;3.30;99.90;;;;;;4935843;29;20465;-75
2021/01/06 09:50:49;;;;;;;29.37;27.27;;;3.40;99.90;;;;;;4936023;29;20516;-75
2021/01/06 09:53:19;;;;;;;27.20;25.47;;;3.40;99.90;;;;;;4935795;29;20461;-74
2021/01/06 09:55:48;;;;;;;29.03;27.10;;;3.40;99.90;;;;;;4935435;29;21192;-74
2021/01/06 09:58:25;;;;;;;30.23;27.13;;;3.40;99.90;;;;;;4935239;29;20971;-74
2021/01/06 10:01:00;;;;;;;28.53;26.43;;;3.30;99.90;;;;;;4935844;29;20445;-74
2021/01/06 10:03:29;;;;;;;27.17;25.37;;;3.10;99.90;;;;;;4935586;29;20828;-74
2021/01/06 10:06:11;;;;;;;27.90;26.20;;;3.10;99.90;;;;;;4934638;29;21006;-73
2021/01/06 10:08:45;;;;;;;27.47;25.73;;;3.00;99.90;;;;;;4935800;29;20472;-73
2021/01/06 10:11:27;;;;;;;28.53;26.43;;;3.00;99.90;;;;;;4935483;29;20506;-74
2021/01/06 10:14:11;;;;;;;28.10;26.30;;;3.00;99.90;;;;;;4935556;29;20517;-73
2021/01/06 10:16:43;;;;;;;28.60;26.60;;;3.10;99.90;;;;;;4935563;29;20468;-74
2021/01/06 10:19:18;;;;;;;28.40;26.60;;;3.10;99.90;;;;;;4935357;29;20465;-74
2021/01/06 10:21:53;;;;;;;28.77;26.97;;;3.20;99.90;;;;;;4935208;29;20507;-73
2021/01/06 10:24:38;;;;;;;28.50;26.60;;;3.20;99.90;;;;;;4935195;29;20484;-74
2021/01/06 10:27:18;;;;;;;28.20;26.57;;;3.10;99.90;;;;;;4935059;29;20490;-73
2021/01/06 10:29:50;;;;;;;28.50;26.70;;;3.10;99.90;;;;;;4934976;29;20449;-73
2021/01/06 10:32:46;;;;;;;27.83;26.03;;;3.00;99.90;;;;;;4935072;29;20465;-73
2021/01/06 10:35:40;;;;;;;29.67;27.73;;;3.00;99.90;;;;;;4935222;29;20866;-73
2021/01/06 10:38:27;;;;;;;27.60;25.80;;;3.20;99.90;;;;;;4935161;29;20952;-74
2021/01/06 10:41:09;;;;;;;27.83;25.97;;;3.30;99.90;;;;;;4934901;29;20453;-73
2021/01/06 10:43:39;;;;;;;26.87;24.93;;;3.40;99.90;;;;;;4935139;29;20508;-73
2021/01/06 10:46:38;;;;;;;27.03;25.40;;;3.30;99.90;;;;;;4935138;29;20447;-73
2021/01/06 10:49:07;;;;;;;28.03;26.13;;;3.30;99.90;;;;;;4934836;29;20451;-73
2021/01/06 10:52:01;;;;;;;28.67;26.60;;;3.20;99.90;;;;;;4934733;29;20464;-73
2021/01/06 10:54:35;;;;;;;28.20;26.40;;;3.10;99.90;;;;;;4934317;29;20449;-73
2021/01/06 10:57:08;;;;;;;30.33;28.23;;;3.00;99.90;;;;;;4934502;29;20469;-73
2021/01/06 10:59:35;;;;;;;29.80;27.57;;;3.00;99.90;;;;;;4934595;29;20456;-73
2021/01/06 11:02:14;;;;;;;29.00;27.10;;;3.00;99.90;;;;;;4934249;29;20477;-73
2021/01/06 11:05:06;;;;;;;29.03;27.13;;;3.00;99.90;;;;;;4934461;29;20589;-74
2021/01/06 11:07:58;;;;;;;31.40;29.30;;;3.10;99.90;;;;;;4934512;29;20465;-71
2021/01/06 11:10:49;;;;;;;29.33;27.43;;;3.10;99.90;;;;;;4930408;29;20474;-73
2021/01/06 11:13:22;;;;;;;32.00;29.90;;;3.10;99.90;;;;;;4934068;29;21051;-73
2021/01/06 11:16:00;;;;;;;31.47;29.37;;;3.00;99.90;;;;;;4934261;29;20449;-73
2021/01/06 11:18:39;;;;;;;30.17;28.20;;;3.00;99.90;;;;;;4933270;29;20462;-73
2021/01/06 11:21:19;;;;;;;28.13;26.23;;;3.00;99.90;;;;;;4934409;29;20456;-73
2021/01/06 11:23:56;;;;;;;30.70;28.70;;;3.00;99.90;;;;;;4933741;29;20869;-73
2021/01/06 11:26:49;;;;;;;33.40;31.10;;;2.90;99.90;;;;;;4934315;29;20475;-71
2021/01/06 11:29:30;;;;;;;30.13;28.23;;;3.00;99.90;;;;;;4930113;29;20993;-73
2021/01/06 11:32:26;;;;;;;30.50;28.40;;;3.10;99.90;;;;;;4933885;29;20449;-73
2021/01/06 11:35:19;;;;;;;31.70;29.63;;;3.00;99.90;;;;;;4914457;29;20512;-74
2021/01/06 11:37:47;;;;;;;30.27;28.27;;;3.00;99.90;;;;;;4933922;29;20476;-73
2021/01/06 11:40:31;;;;;;;29.00;26.83;;;3.20;99.90;;;;;;4933662;29;20481;-73
2021/01/06 11:43:18;;;;;;;28.80;27.00;;;3.20;99.90;;;;;;4928813;29;20474;-73
2021/01/06 11:45:48;;;;;;;29.83;27.77;;;3.10;99.90;;;;;;4927320;29;20546;-73
2021/01/06 11:48:31;;;;;;;29.70;27.70;;;3.30;99.90;;;;;;4925721;29;20473;-73
2021/01/06 11:51:17;;;;;;;29.07;27.27;;;3.30;99.90;;;;;;4934015;29;20834;-73
2021/01/06 11:53:46;;;;;;;29.97;27.77;;;3.20;99.90;;;;;;4933494;29;20472;-73
2021/01/06 11:56:18;;;;;;;31.27;28.70;;;3.30;99.90;;;;;;4933727;29;20445;-73
2021/01/06 11:59:24;;;;;;;30.03;27.70;;;3.30;99.90;;;;;;4934262;29;20449;-74
2021/01/06 12:02:02;;;;;;;29.80;27.70;;;3.40;99.90;;;;;;4933808;29;20947;-74
2021/01/06 12:05:00;;;;;;;28.83;26.83;;;3.50;99.90;;;;;;4933800;29;20472;-74
2021/01/06 12:07:39;;;;;;;29.67;27.53;;;3.40;99.90;;;;;;4933720;29;20548;-73
2021/01/06 12:10:20;;;;;;;29.03;27.03;;;3.40;99.90;;;;;;4933924;29;20504;-74
2021/01/06 12:12:58;;;;;;;28.70;26.80;;;3.50;99.90;;;;;;4933571;29;20453;-74
2021/01/06 12:15:36;;;;;;;29.77;27.30;;;3.30;99.90;;;;;;4933751;29;20456;-73
2021/01/06 12:18:12;;;;;;;29.60;27.53;;;3.20;99.90;;;;;;4933464;29;20464;-74
2021/01/06 12:20:46;;;;;;;29.43;27.27;;;3.30;99.90;;;;;;4933521;29;20443;-74
2021/01/06 12:23:35;;;;;;;27.30;25.43;;;3.40;99.90;;;;;;4933338;29;20523;-74
2021/01/06 12:26:03;;;;;;;30.03;27.53;;;3.30;99.90;;;;;;4933302;29;20493;-74
2021/01/06 12:28:35;;;;;;;29.97;27.50;;;3.20;99.90;;;;;;4933429;29;20525;-73
2021/01/06 12:31:10;;;;;;;31.27;28.77;;;3.30;99.90;;;;;;4936884;29;20462;-74
2021/01/06 12:33:42;;;;;;;28.90;26.90;;;3.30;99.90;;;;;;4937583;29;20453;-74
2021/01/06 12:36:18;;;;;;;30.20;28.20;;;3.20;99.90;;;;;;4937544;29;20457;-73
2021/01/06 12:38:46;;;;;;;28.93;26.67;;;3.30;99.90;;;;;;4935334;29;20472;-74
2021/01/06 12:41:19;;;;;;;31.37;29.13;;;3.20;99.90;;;;;;4937208;29;20966;-74
2021/01/06 12:43:48;;;;;;;30.87;28.50;;;3.20;99.90;;;;;;4937136;29;20468;-73
2021/01/06 12:46:33;;;;;;;30.17;28.13;;;3.30;99.90;;;;;;4936891;29;20493;-74
2021/01/06 12:49:31;;;;;;;32.13;30.03;;;3.40;99.90;;;;;;4937241;29;20488;-74
2021/01/06 12:52:17;;;;;;;30.83;28.63;;;3.40;99.90;;;;;;4936820;29;20466;-74
2021/01/06 12:54:47;;;;;;;31.30;29.07;;;3.40;99.90;;;;;;4936897;29;20517;-73
2021/01/06 12:57:19;;;;;;;33.03;30.60;;;3.30;99.90;;;;;;4936812;29;20974;-74
2021/01/06 12:59:50;;;;;;;31.03;28.93;;;3.40;99.90;;;;;;4937119;29;20529;-74
2021/01/06 13:02:25;;;;;;;32.13;29.60;;;3.40;99.90;;;;;;4936776;29;20462;-74
2021/01/06 13:04:52;;;;;;;30.93;28.53;;;3.30;99.90;;;;;;4936913;29;20853;-74
2021/01/06 13:07:26;;;;;;;31.53;29.33;;;3.50;99.90;;;;;;4936708;29;20462;-73
2021/01/06 13:10:00;;;;;;;30.57;28.47;;;3.50;99.90;;;;;;4936992;29;20457;-73
2021/01/06 13:12:36;;;;;;;31.37;29.07;;;3.50;99.90;;;;;;4936641;29;20882;-73
2021/01/06 13:15:08;;;;;;;30.30;28.13;;;3.40;99.90;;;;;;4936863;29;21026;-74
2021/01/06 13:17:36;;;;;;;31.27;29.07;;;3.30;99.90;;;;;;4936625;29;21028;-74
2021/01/06 13:20:17;;;;;;;29.90;27.70;;;3.30;99.90;;;;;;4936507;29;20449;-74
2021/01/06 13:22:55;;;;;;;31.37;28.77;;;3.30;99.90;;;;;;4936504;29;20873;-74
2021/01/06 13:25:34;;;;;;;28.10;26.17;;;3.20;99.90;;;;;;4936597;29;20560;-74
2021/01/06 13:28:10;;;;;;;30.70;28.50;;;3.20;99.90;;;;;;4936163;29;20756;-74
2021/01/06 13:30:44;;;;;;;29.40;27.17;;;3.20;99.90;;;;;;4936840;29;20437;-75
2021/01/06 13:33:24;;;;;;;27.83;26.10;;;3.20;99.90;;;;;;4936343;29;20508;-73
2021/01/06 13:36:24;;;;;;;28.70;26.70;;;3.20;99.90;;;;;;4936650;29;20469;-74
2021/01/06 13:39:00;;;;;;;28.47;26.50;;;3.20;99.90;;;;;;4936349;29;20489;-73
2021/01/06 13:41:31;;;;;;;27.30;25.43;;;3.20;99.90;;;;;;4935042;29;20457;-73
2021/01/06 13:44:03;;;;;;;28.13;26.33;;;3.20;99.90;;;;;;4936041;29;20458;-73
2021/01/06 13:46:46;;;;;;;28.07;26.27;;;3.20;99.90;;;;;;4936212;29;20501;-74
2021/01/06 13:49:34;;;;;;;27.77;25.93;;;3.10;99.90;;;;;;4936007;29;20880;-74
2021/01/06 13:52:06;;;;;;;28.90;27.00;;;3.20;99.90;;;;;;4934603;29;20512;-74
2021/01/06 13:54:56;;;;;;;29.47;27.30;;;3.20;99.90;;;;;;4934678;29;20443;-74
2021/01/06 13:57:29;;;;;;;28.27;26.47;;;3.10;99.90;;;;;;4933298;29;20459;-73
2021/01/06 14:00:08;;;;;;;28.73;26.77;;;3.10;99.90;;;;;;4932641;29;20480;-74
2021/01/06 14:02:52;;;;;;;29.20;27.20;;;3.10;99.90;;;;;;4932430;29;20454;-75
2021/01/06 14:05:30;;;;;;;29.00;27.03;;;3.10;99.90;;;;;;4932518;29;20489;-73
2021/01/06 14:08:12;;;;;;;28.13;26.23;;;3.10;99.90;;;;;;4932346;29;20457;-74
2021/01/06 14:10:44;;;;;;;29.77;27.67;;;3.10;99.90;;;;;;4932518;29;20450;-74
2021/01/06 14:13:22;;;;;;;30.73;28.27;;;3.10;99.90;;;;;;4934386;29;20473;-74
2021/01/06 14:16:26;;;;;;;27.67;25.63;;;3.00;99.90;;;;;;4935227;29;20453;-73
2021/01/06 14:19:07;;;;;;;28.63;26.60;;;3.10;99.90;;;;;;4935458;29;20512;-73
2021/01/06 14:21:47;;;;;;;29.40;27.50;;;3.10;99.90;;;;;;4935550;29;21022;-73
2021/01/06 14:24:18;;;;;;;27.93;26.13;;;3.00;99.90;;;;;;4935242;29;20584;-73
2021/01/06 14:26:46;;;;;;;28.80;26.93;;;2.90;99.90;;;;;;4935105;29;20476;-73
2021/01/06 14:29:45;;;;;;;28.80;26.90;;;2.90;99.90;;;;;;4935451;29;20460;-73
2021/01/06 14:32:28;;;;;;;26.77;24.80;;;2.80;99.90;;;;;;4935192;29;20471;-74
2021/01/06 14:35:07;;;;;;;28.33;26.33;;;2.80;99.90;;;;;;4935529;29;20472;-73
2021/01/06 14:38:00;;;;;;;27.17;25.43;;;2.90;99.90;;;;;;4935570;29;20445;-73
2021/01/06 14:40:30;;;;;;;28.27;26.43;;;2.90;99.90;;;;;;4935265;29;20453;-73
2021/01/06 14:43:06;;;;;;;26.17;24.47;;;2.90;99.90;;;;;;4934847;29;20516;-72
2021/01/06 14:45:42;;;;;;;27.40;25.77;;;2.90;99.90;;;;;;4934941;29;20493;-73
2021/01/06 14:48:15;;;;;;;26.83;25.13;;;2.80;99.90;;;;;;4935156;29;20457;-73
2021/01/06 14:51:05;;;;;;;28.00;26.20;;;2.80;99.90;;;;;;4934520;29;20890;-73
2021/01/06 14:53:38;;;;;;;27.40;25.60;;;2.80;99.90;;;;;;4932296;29;20478;-74
2021/01/06 14:56:27;;;;;;;28.33;26.50;;;2.80;99.90;;;;;;4934703;29;20429;-73
2021/01/06 14:59:15;;;;;;;26.67;24.83;;;2.80;99.90;;;;;;4934918;29;20452;-73
2021/01/06 15:01:47;;;;;;;27.80;25.87;;;2.80;99.90;;;;;;4934605;29;20457;-73
2021/01/06 15:04:21;;;;;;;25.60;24.07;;;2.80;99.90;;;;;;4934451;29;20490;-73
2021/01/06 15:06:54;;;;;;;27.80;26.00;;;2.90;99.90;;;;;;4934760;29;20492;-73
2021/01/06 15:09:53;;;;;;;27.17;25.47;;;2.90;99.90;;;;;;4935144;29;20452;-73
2021/01/06 15:12:26;;;;;;;26.93;25.17;;;2.90;99.90;;;;;;4934509;29;20468;-73
2021/01/06 15:14:56;;;;;;;26.70;25.10;;;2.90;99.90;;;;;;4934640;29;20597;-73
2021/01/06 15:17:28;;;;;;;26.60;25.00;;;2.90;99.90;;;;;;4934195;29;20842;-73
2021/01/06 15:20:01;;;;;;;26.40;24.80;;;3.00;99.90;;;;;;4933382;29;20453;-74
2021/01/06 15:22:31;;;;;;;24.57;23.07;;;3.00;99.90;;;;;;4934125;29;20490;-73
2021/01/06 15:24:59;;;;;;;27.43;25.50;;;3.10;99.90;;;;;;4933984;29;20592;-73
2021/01/06 15:27:31;;;;;;;26.73;25.03;;;3.10;99.90;;;;;;4933656;29;20903;-73
2021/01/06 15:30:05;;;;;;;26.20;24.43;;;3.00;99.90;;;;;;4933822;29;20832;-73
2021/01/06 15:32:48;;;;;;;27.40;25.33;;;3.00;99.90;;;;;;4932956;29;20472;-73
2021/01/06 15:35:20;;;;;;;26.40;24.80;;;2.90;99.90;;;;;;4927788;29;20453;-73
2021/01/06 15:37:48;;;;;;;26.37;24.73;;;3.00;99.90;;;;;;4934006;29;20477;-73
2021/01/06 15:40:29;;;;;;;24.70;23.30;;;3.00;99.90;;;;;;4933705;29;20454;-74
2021/01/06 15:43:01;;;;;;;27.03;25.23;;;3.10;99.90;;;;;;4933809;29;20468;-73
2021/01/06 15:45:27;;;;;;;27.20;25.30;;;3.10;99.90;;;;;;4933784;29;20495;-74
2021/01/06 15:48:02;;;;;;;26.53;24.93;;;3.00;99.90;;;;;;4933836;29;20462;-73
2021/01/06 15:50:30;;;;;;;25.43;24.03;;;2.90;99.90;;;;;;4933680;29;20978;-74
2021/01/06 15:53:17;;;;;;;26.10;24.40;;;3.00;99.90;;;;;;4933334;29;20452;-73
2021/01/06 15:55:49;;;;;;;25.60;24.07;;;3.10;99.90;;;;;;4933685;29;20451;-74
2021/01/06 15:58:16;;;;;;;26.83;25.13;;;3.00;99.90;;;;;;4933405;29;21006;-73
2021/01/06 16:00:49;;;;;;;25.00;23.33;;;3.00;99.90;;;;;;4933734;29;20526;-73
2021/01/06 16:03:19;;;;;;;24.20;22.90;;;3.00;99.90;;;;;;4933580;29;20472;-74
2021/01/06 16:05:47;;;;;;;27.03;25.33;;;3.00;99.90;;;;;;4933107;29;21015;-73
2021/01/06 16:08:32;;;;;;;26.57;24.60;;;3.00;99.90;;;;;;4933352;29;20464;-73
2021/01/06 16:11:00;;;;;;;28.40;26.40;;;3.00;99.90;;;;;;4933501;29;20450;-73
2021/01/06 16:13:30;;;;;;;28.33;26.43;;;3.00;99.90;;;;;;4933541;29;20826;-74
2021/01/06 16:16:03;;;;;;;26.13;24.50;;;3.10;99.90;;;;;;4933270;29;20450;-73
2021/01/06 16:18:37;;;;;;;28.23;26.20;;;3.20;99.90;;;;;;4933716;29;20462;-73
2021/01/06 16:21:08;;;;;;;26.13;24.40;;;3.20;99.90;;;;;;4933174;29;20459;-73
2021/01/06 16:23:34;;;;;;;27.80;26.00;;;3.30;99.90;;;;;;4933765;29;20448;-74
2021/01/06 16:26:07;;;;;;;26.47;24.70;;;3.20;99.90;;;;;;4933151;29;20497;-74
2021/01/06 16:28:34;;;;;;;26.20;24.50;;;3.30;99.90;;;;;;4933274;29;20497;-73
2021/01/06 16:31:04;;;;;;;25.53;23.97;;;3.30;99.90;;;;;;4933021;29;20832;-73
2021/01/06 16:33:31;;;;;;;25.67;24.03;;;3.30;99.90;;;;;;4933517;29;20756;-74
2021/01/06 16:36:01;;;;;;;25.50;23.70;;;3.40;99.90;;;;;;4933300;29;20454;-73
2021/01/06 16:38:30;;;;;;;25.43;23.83;;;3.40;99.90;;;;;;4933112;29;20476;-74
2021/01/06 16:41:00;;;;;;;26.03;24.37;;;3.50;99.90;;;;;;4933041;29;20508;-73
2021/01/06 16:43:29;;;;;;;25.77;24.17;;;3.40;99.90;;;;;;4933190;29;20453;-73
2021/01/06 16:46:17;;;;;;;26.40;24.70;;;3.40;99.90;;;;;;4933235;29;20490;-73
2021/01/06 16:48:45;;;;;;;26.40;24.70;;;3.40;99.90;;;;;;4933459;29;20458;-73
2021/01/06 16:51:15;;;;;;;29.23;26.93;;;3.20;99.90;;;;;;4933085;29;20463;-74
2021/01/06 16:53:42;;;;;;;27.70;25.80;;;3.30;99.90;;;;;;4933120;29;20476;-73
2021/01/06 16:56:44;;;;;;;27.37;25.57;;;3.40;99.90;;;;;;4932564;29;21076;-74
2021/01/06 16:59:10;;;;;;;26.03;24.43;;;3.40;99.90;;;;;;4928759;29;20441;-74
2021/01/06 17:01:42;;;;;;;27.27;25.20;;;3.40;99.90;;;;;;4932337;29;20455;-74
2021/01/06 17:04:10;;;;;;;26.43;24.63;;;3.50;99.90;;;;;;4927851;29;20447;-74
2021/01/06 17:06:38;;;;;;;27.00;25.00;;;3.60;99.90;;;;;;4932048;29;20511;-74
2021/01/06 17:09:08;;;;;;;27.93;26.03;;;3.50;99.90;;;;;;4929857;29;20521;-74
2021/01/06 17:11:34;;;;;;;28.00;26.33;;;3.50;99.90;;;;;;4932218;29;20453;-73
2021/01/06 17:14:03;;;;;;;25.30;23.60;;;3.60;99.90;;;;;;4932037;29;20457;-74
2021/01/06 17:16:29;;;;;;;29.33;27.43;;;3.60;99.90;;;;;;4934344;29;20450;-74
2021/01/06 17:18:59;;;;;;;30.07;27.90;;;3.60;99.90;;;;;;4935588;29;20451;-74
2021/01/06 17:21:29;;;;;;;28.90;27.10;;;3.60;99.90;;;;;;4933085;29;20465;-75
2021/01/06 17:23:57;;;;;;;30.67;28.03;;;3.70;99.90;;;;;;4935643;29;20453;-74
2021/01/06 17:26:28;;;;;;;29.40;27.43;;;3.70;99.90;;;;;;4932895;29;20485;-74
2021/01/06 17:29:08;;;;;;;28.17;26.47;;;3.60;99.90;;;;;;4935699;29;20442;-74
2021/01/06 17:31:34;;;;;;;28.57;26.80;;;3.60;99.90;;;;;;4934208;29;20445;-74
2021/01/06 17:34:05;;;;;;;29.50;27.33;;;3.60;99.90;;;;;;4934957;29;20864;-75
2021/01/06 17:36:31;;;;;;;28.10;26.40;;;3.60;99.90;;;;;;4935229;29;20445;-75
2021/01/06 17:38:58;;;;;;;28.80;26.90;;;3.60;99.90;;;;;;4936545;29;20513;-75
2021/01/06 17:41:35;;;;;;;29.10;27.00;;;3.70;99.90;;;;;;4936261;29;20444;-75
2021/01/06 17:44:01;;;;;;;31.87;29.00;;;3.50;99.90;;;;;;4936654;29;20463;-74
2021/01/06 17:46:29;;;;;;;27.90;25.87;;;3.60;99.90;;;;;;4936554;29;20544;-74
2021/01/06 17:48:56;;;;;;;30.30;28.33;;;3.60;99.90;;;;;;4936361;29;20959;-75
2021/01/06 17:51:24;;;;;;;29.63;27.53;;;3.60;99.90;;;;;;4934551;29;20479;-74
2021/01/06 17:53:50;;;;;;;28.97;27.10;;;3.70;99.90;;;;;;4935576;29;20467;-75
2021/01/06 17:56:17;;;;;;;29.00;27.00;;;3.60;99.90;;;;;;4935628;29;20457;-75
2021/01/06 17:58:46;;;;;;;28.03;26.33;;;3.70;99.90;;;;;;4935890;29;20463;-75
2021/01/06 18:01:12;;;;;;;30.13;28.13;;;3.70;99.90;;;;;;4935654;29;20462;-75
2021/01/06 18:03:50;;;;;;;29.40;27.33;;;3.80;99.90;;;;;;4935948;29;20453;-75
2021/01/06 18:06:23;;;;;;;28.70;26.80;;;3.70;99.90;;;;;;4935676;29;20845;-75
2021/01/06 18:08:49;;;;;;;28.93;26.73;;;3.70;99.90;;;;;;4935691;29;20967;-75
2021/01/06 18:11:26;;;;;;;29.60;27.67;;;3.60;99.90;;;;;;4935773;29;20450;-74
2021/01/06 18:13:59;;;;;;;30.70;28.70;;;3.60;99.90;;;;;;4936332;29;20799;-75
2021/01/06 18:16:26;;;;;;;31.10;28.90;;;3.70;99.90;;;;;;4935637;29;20446;-76
2021/01/06 18:18:52;;;;;;;29.10;27.27;;;3.80;99.90;;;;;;4935513;29;20960;-76
2021/01/06 18:21:37;;;;;;;29.03;27.13;;;3.70;99.90;;;;;;4935892;29;20806;-76
2021/01/06 18:24:14;;;;;;;29.10;27.20;;;3.80;99.90;;;;;;4935259;29;20538;-76
2021/01/06 18:26:56;;;;;;;29.63;27.50;;;3.80;99.90;;;;;;4932112;29;20507;-76
2021/01/06 18:29:29;;;;;;;29.93;27.97;;;3.70;99.90;;;;;;4915786;29;20467;-76
2021/01/06 18:32:08;;;;;;;29.03;26.93;;;3.70;99.90;;;;;;4915585;29;20496;-76
2021/01/06 18:34:34;;;;;;;27.30;25.43;;;3.80;99.90;;;;;;4915687;29;20460;-76
2021/01/06 18:37:11;;;;;;;28.57;26.67;;;3.70;99.90;;;;;;4915640;29;20456;-75
2021/01/06 18:39:37;;;;;;;27.63;25.87;;;3.70;99.90;;;;;;4915909;29;20503;-76
2021/01/06 18:42:05;;;;;;;27.70;25.80;;;3.80;99.90;;;;;;4915921;29;20461;-76
2021/01/06 18:44:35;;;;;;;27.90;26.10;;;3.80;99.90;;;;;;4915450;29;20465;-77
2021/01/06 18:47:08;;;;;;;29.53;27.63;;;3.80;99.90;;;;;;4915417;29;20461;-76
2021/01/06 18:49:36;;;;;;;28.50;26.73;;;3.80;99.90;;;;;;4915556;29;20459;-76
2021/01/06 18:52:09;;;;;;;27.60;25.90;;;3.80;99.90;;;;;;4915374;29;20459;-77
2021/01/06 18:54:35;;;;;;;27.70;26.10;;;3.80;99.90;;;;;;4915762;29;20465;-76
2021/01/06 18:57:10;;;;;;;28.77;27.07;;;3.70;99.90;;;;;;4915074;29;20448;-76
2021/01/06 18:59:38;;;;;;;27.60;25.90;;;3.70;99.90;;;;;;4915583;29;20500;-76
2021/01/06 19:02:07;;;;;;;26.80;25.10;;;3.70;99.90;;;;;;4915498;29;20490;-76
2021/01/06 19:04:34;;;;;;;25.07;23.60;;;3.60;99.90;;;;;;4914977;29;20465;-76